sensor_id;sensor_type;location;lat;lon;timestamp;P1;P2;P0
36897;PMS5003;22827;53.108;-6.738;2024-02-23T00:00:26;3;2;
36897;PMS5003;22827;53.108;-6.738;2024-02-23T00:02:53;4;4;
36897;PMS5003;22827;53.108;-6.738;2024-02-23T00:05:20;2;2;
36897;PMS5003;22827;53.108;-6.738;2024-02-23T00:07:48;2;1;
36897;PMS5003;22827;53.108;-6.738;2024-02-23T00:10:15;6;2;
36897;PMS5003;22827;53.108;-6.738;2024-02-23T00:12:42;6;4;
36897;PMS5003;22827;53.108;-6.738;2024-02-23T00:15:09;2;2;
36897;PMS5003;22827;53.108;-6.738;2024-02-23T00:17:36;4;4;
36897;PMS5003;22827;53.108;-6.738;2024-02-23T00:20:03;1;1;
36897;PMS5003;22827;53.108;-6.738;2024-02-23T00:22:32;2;2;
36897;PMS5003;22827;53.108;-6.738;2024-02-23T00:24:59;3;3;
36897;PMS5003;22827;53.108;-6.738;2024-02-23T00:27:27;3;2;
36897;PMS5003;22827;53.108;-6.738;2024-02-23T00:29:54;2;2;
36897;PMS5003;22827;53.108;-6.738;2024-02-23T00:32:21;4;2;
36897;PMS5003;22827;53.108;-6.738;2024-02-23T00:34:48;2;1;
36897;PMS5003;22827;53.108;-6.738;2024-02-23T00:37:15;2;2;
36897;PMS5003;22827;53.108;-6.738;2024-02-23T00:39:42;2;1;
36897;PMS5003;22827;53.108;-6.738;2024-02-23T00:42:09;1;1;
36897;PMS5003;22827;53.108;-6.738;2024-02-23T00:44:37;1;0;
36897;PMS5003;22827;53.108;-6.738;2024-02-23T00:47:04;3;1;
36897;PMS5003;22827;53.108;-6.738;2024-02-23T00:49:31;4;2;
36897;PMS5003;22827;53.108;-6.738;2024-02-23T00:51:59;1;1;
36897;PMS5003;22827;53.108;-6.738;2024-02-23T00:54:26;1;1;
36897;PMS5003;22827;53.108;-6.738;2024-02-23T00:56:52;2;2;
36897;PMS5003;22827;53.108;-6.738;2024-02-23T00:59:19;0;0;
36897;PMS5003;22827;53.108;-6.738;2024-02-23T01:01:46;2;1;
36897;PMS5003;22827;53.108;-6.738;2024-02-23T01:04:14;6;6;
36897;PMS5003;22827;53.108;-6.738;2024-02-23T01:06:41;2;2;
36897;PMS5003;22827;53.108;-6.738;2024-02-23T01:09:08;0;0;
36897;PMS5003;22827;53.108;-6.738;2024-02-23T01:11:35;0;0;
36897;PMS5003;22827;53.108;-6.738;2024-02-23T01:14:02;1;0;
36897;PMS5003;22827;53.108;-6.738;2024-02-23T01:16:29;2;1;
36897;PMS5003;22827;53.108;-6.738;2024-02-23T01:18:56;3;2;
36897;PMS5003;22827;53.108;-6.738;2024-02-23T01:21:24;1;0;
36897;PMS5003;22827;53.108;-6.738;2024-02-23T01:23:51;0;0;
36897;PMS5003;22827;53.108;-6.738;2024-02-23T01:26:18;1;1;
36897;PMS5003;22827;53.108;-6.738;2024-02-23T01:28:45;1;1;
36897;PMS5003;22827;53.108;-6.738;2024-02-23T01:31:12;0;0;
36897;PMS5003;22827;53.108;-6.738;2024-02-23T01:33:39;1;1;
36897;PMS5003;22827;53.108;-6.738;2024-02-23T01:36:06;0;0;
36897;PMS5003;22827;53.108;-6.738;2024-02-23T01:38:33;1;1;
36897;PMS5003;22827;53.108;-6.738;2024-02-23T01:41:01;0;0;
36897;PMS5003;22827;53.108;-6.738;2024-02-23T01:43:28;2;0;
36897;PMS5003;22827;53.108;-6.738;2024-02-23T01:45:55;4;2;
36897;PMS5003;22827;53.108;-6.738;2024-02-23T01:48:22;1;1;
36897;PMS5003;22827;53.108;-6.738;2024-02-23T01:50:49;3;2;
36897;PMS5003;22827;53.108;-6.738;2024-02-23T01:53:17;1;1;
36897;PMS5003;22827;53.108;-6.738;2024-02-23T01:55:45;0;0;
36897;PMS5003;22827;53.108;-6.738;2024-02-23T01:58:13;2;1;
36897;PMS5003;22827;53.108;-6.738;2024-02-23T02:00:41;1;0;
36897;PMS5003;22827;53.108;-6.738;2024-02-23T02:03:08;0;0;
36897;PMS5003;22827;53.108;-6.738;2024-02-23T02:05:35;0;0;
36897;PMS5003;22827;53.108;-6.738;2024-02-23T02:08:03;1;1;
36897;PMS5003;22827;53.108;-6.738;2024-02-23T02:10:31;0;0;
36897;PMS5003;22827;53.108;-6.738;2024-02-23T02:13:01;2;1;
36897;PMS5003;22827;53.108;-6.738;2024-02-23T02:15:29;1;1;
36897;PMS5003;22827;53.108;-6.738;2024-02-23T02:17:56;1;1;
36897;PMS5003;22827;53.108;-6.738;2024-02-23T02:20:24;1;1;
36897;PMS5003;22827;53.108;-6.738;2024-02-23T02:22:51;3;2;
36897;PMS5003;22827;53.108;-6.738;2024-02-23T02:25:18;0;0;
36897;PMS5003;22827;53.108;-6.738;2024-02-23T02:27:45;4;1;
36897;PMS5003;22827;53.108;-6.738;2024-02-23T02:30:12;1;0;
36897;PMS5003;22827;53.108;-6.738;2024-02-23T02:32:40;0;0;
36897;PMS5003;22827;53.108;-6.738;2024-02-23T02:35:10;1;1;
36897;PMS5003;22827;53.108;-6.738;2024-02-23T02:37:38;1;0;
36897;PMS5003;22827;53.108;-6.738;2024-02-23T02:40:06;0;0;
36897;PMS5003;22827;53.108;-6.738;2024-02-23T02:42:34;0;0;
36897;PMS5003;22827;53.108;-6.738;2024-02-23T02:45:01;0;0;
36897;PMS5003;22827;53.108;-6.738;2024-02-23T02:47:28;0;0;
36897;PMS5003;22827;53.108;-6.738;2024-02-23T02:49:55;1;0;
36897;PMS5003;22827;53.108;-6.738;2024-02-23T02:52:22;0;0;
36897;PMS5003;22827;53.108;-6.738;2024-02-23T02:54:49;0;0;
36897;PMS5003;22827;53.108;-6.738;2024-02-23T02:57:16;1;0;
36897;PMS5003;22827;53.108;-6.738;2024-02-23T02:59:43;0;0;
36897;PMS5003;22827;53.108;-6.738;2024-02-23T03:02:10;0;0;
36897;PMS5003;22827;53.108;-6.738;2024-02-23T03:04:38;0;0;
36897;PMS5003;22827;53.108;-6.738;2024-02-23T03:07:05;1;0;
36897;PMS5003;22827;53.108;-6.738;2024-02-23T03:09:32;0;0;
36897;PMS5003;22827;53.108;-6.738;2024-02-23T03:11:59;0;0;
36897;PMS5003;22827;53.108;-6.738;2024-02-23T03:14:26;0;0;
36897;PMS5003;22827;53.108;-6.738;2024-02-23T03:16:53;0;0;
36897;PMS5003;22827;53.108;-6.738;2024-02-23T03:19:20;0;0;
36897;PMS5003;22827;53.108;-6.738;2024-02-23T03:21:47;0;0;
36897;PMS5003;22827;53.108;-6.738;2024-02-23T03:24:14;0;0;
36897;PMS5003;22827;53.108;-6.738;2024-02-23T03:26:41;0;0;
36897;PMS5003;22827;53.108;-6.738;2024-02-23T03:29:08;0;0;
36897;PMS5003;22827;53.108;-6.738;2024-02-23T03:31:36;0;0;
36897;PMS5003;22827;53.108;-6.738;2024-02-23T03:34:04;1;0;
36897;PMS5003;22827;53.108;-6.738;2024-02-23T03:36:31;0;0;
36897;PMS5003;22827;53.108;-6.738;2024-02-23T03:38:58;0;0;
36897;PMS5003;22827;53.108;-6.738;2024-02-23T03:41:25;0;0;
36897;PMS5003;22827;53.108;-6.738;2024-02-23T03:43:52;0;0;
36897;PMS5003;22827;53.108;-6.738;2024-02-23T03:46:19;0;0;
36897;PMS5003;22827;53.108;-6.738;2024-02-23T03:48:46;0;0;
36897;PMS5003;22827;53.108;-6.738;2024-02-23T03:51:13;0;0;
36897;PMS5003;22827;53.108;-6.738;2024-02-23T03:53:40;0;0;
36897;PMS5003;22827;53.108;-6.738;2024-02-23T03:56:08;0;0;
36897;PMS5003;22827;53.108;-6.738;2024-02-23T03:58:35;0;0;
36897;PMS5003;22827;53.108;-6.738;2024-02-23T04:01:02;1;0;
36897;PMS5003;22827;53.108;-6.738;2024-02-23T04:03:29;0;0;
36897;PMS5003;22827;53.108;-6.738;2024-02-23T04:05:56;0;0;
36897;PMS5003;22827;53.108;-6.738;2024-02-23T04:08:23;0;0;
36897;PMS5003;22827;53.108;-6.738;2024-02-23T04:10:50;0;0;
36897;PMS5003;22827;53.108;-6.738;2024-02-23T04:13:20;0;0;
36897;PMS5003;22827;53.108;-6.738;2024-02-23T04:15:47;0;0;
36897;PMS5003;22827;53.108;-6.738;2024-02-23T04:18:14;1;0;
36897;PMS5003;22827;53.108;-6.738;2024-02-23T04:20:41;1;0;
36897;PMS5003;22827;53.108;-6.738;2024-02-23T04:23:08;0;0;
36897;PMS5003;22827;53.108;-6.738;2024-02-23T04:25:36;0;0;
36897;PMS5003;22827;53.108;-6.738;2024-02-23T04:28:03;0;0;
36897;PMS5003;22827;53.108;-6.738;2024-02-23T04:30:31;0;0;
36897;PMS5003;22827;53.108;-6.738;2024-02-23T04:32:58;0;0;
36897;PMS5003;22827;53.108;-6.738;2024-02-23T04:35:25;0;0;
36897;PMS5003;22827;53.108;-6.738;2024-02-23T04:37:52;0;0;
36897;PMS5003;22827;53.108;-6.738;2024-02-23T04:40:19;0;0;
36897;PMS5003;22827;53.108;-6.738;2024-02-23T04:42:46;0;0;
36897;PMS5003;22827;53.108;-6.738;2024-02-23T04:45:13;0;0;
36897;PMS5003;22827;53.108;-6.738;2024-02-23T04:47:40;2;0;
36897;PMS5003;22827;53.108;-6.738;2024-02-23T04:50:07;0;0;
36897;PMS5003;22827;53.108;-6.738;2024-02-23T04:52:35;1;0;
36897;PMS5003;22827;53.108;-6.738;2024-02-23T04:55:02;1;0;
36897;PMS5003;22827;53.108;-6.738;2024-02-23T04:57:30;0;0;
36897;PMS5003;22827;53.108;-6.738;2024-02-23T04:59:58;0;0;
36897;PMS5003;22827;53.108;-6.738;2024-02-23T05:02:25;0;0;
36897;PMS5003;22827;53.108;-6.738;2024-02-23T05:04:52;0;0;
36897;PMS5003;22827;53.108;-6.738;2024-02-23T05:07:19;0;0;
36897;PMS5003;22827;53.108;-6.738;2024-02-23T05:09:46;0;0;
36897;PMS5003;22827;53.108;-6.738;2024-02-23T05:12:13;0;0;
36897;PMS5003;22827;53.108;-6.738;2024-02-23T05:14:40;0;0;
36897;PMS5003;22827;53.108;-6.738;2024-02-23T05:17:07;0;0;
36897;PMS5003;22827;53.108;-6.738;2024-02-23T05:19:34;0;0;
36897;PMS5003;22827;53.108;-6.738;2024-02-23T05:22:01;0;0;
36897;PMS5003;22827;53.108;-6.738;2024-02-23T05:24:28;0;0;
36897;PMS5003;22827;53.108;-6.738;2024-02-23T05:26:56;0;0;
36897;PMS5003;22827;53.108;-6.738;2024-02-23T05:29:23;0;0;
36897;PMS5003;22827;53.108;-6.738;2024-02-23T05:31:51;0;0;
36897;PMS5003;22827;53.108;-6.738;2024-02-23T05:34:20;1;0;
36897;PMS5003;22827;53.108;-6.738;2024-02-23T05:36:47;1;0;
36897;PMS5003;22827;53.108;-6.738;2024-02-23T05:39:14;0;0;
36897;PMS5003;22827;53.108;-6.738;2024-02-23T05:41:42;0;0;
36897;PMS5003;22827;53.108;-6.738;2024-02-23T05:44:09;0;0;
36897;PMS5003;22827;53.108;-6.738;2024-02-23T05:46:36;2;0;
36897;PMS5003;22827;53.108;-6.738;2024-02-23T05:49:03;0;0;
36897;PMS5003;22827;53.108;-6.738;2024-02-23T05:51:30;0;0;
36897;PMS5003;22827;53.108;-6.738;2024-02-23T05:53:58;0;0;
36897;PMS5003;22827;53.108;-6.738;2024-02-23T05:56:25;0;0;
36897;PMS5003;22827;53.108;-6.738;2024-02-23T05:58:52;6;6;
36897;PMS5003;22827;53.108;-6.738;2024-02-23T06:01:19;0;0;
36897;PMS5003;22827;53.108;-6.738;2024-02-23T06:03:46;1;0;
36897;PMS5003;22827;53.108;-6.738;2024-02-23T06:06:13;1;0;
36897;PMS5003;22827;53.108;-6.738;2024-02-23T06:08:40;0;0;
36897;PMS5003;22827;53.108;-6.738;2024-02-23T06:11:09;0;0;
36897;PMS5003;22827;53.108;-6.738;2024-02-23T06:13:36;1;0;
36897;PMS5003;22827;53.108;-6.738;2024-02-23T06:16:03;0;0;
36897;PMS5003;22827;53.108;-6.738;2024-02-23T06:18:31;2;0;
36897;PMS5003;22827;53.108;-6.738;2024-02-23T06:20:58;0;0;
36897;PMS5003;22827;53.108;-6.738;2024-02-23T06:23:25;1;1;
36897;PMS5003;22827;53.108;-6.738;2024-02-23T06:25:52;0;0;
36897;PMS5003;22827;53.108;-6.738;2024-02-23T06:28:19;0;0;
36897;PMS5003;22827;53.108;-6.738;2024-02-23T06:30:46;0;0;
36897;PMS5003;22827;53.108;-6.738;2024-02-23T06:33:13;0;0;
36897;PMS5003;22827;53.108;-6.738;2024-02-23T06:35:41;0;0;
36897;PMS5003;22827;53.108;-6.738;2024-02-23T06:38:07;0;0;
36897;PMS5003;22827;53.108;-6.738;2024-02-23T06:40:34;0;0;
36897;PMS5003;22827;53.108;-6.738;2024-02-23T06:43:02;1;1;
36897;PMS5003;22827;53.108;-6.738;2024-02-23T06:45:29;0;0;
36897;PMS5003;22827;53.108;-6.738;2024-02-23T06:47:56;1;1;
36897;PMS5003;22827;53.108;-6.738;2024-02-23T06:50:23;0;0;
36897;PMS5003;22827;53.108;-6.738;2024-02-23T06:52:50;0;0;
36897;PMS5003;22827;53.108;-6.738;2024-02-23T06:55:17;0;0;
36897;PMS5003;22827;53.108;-6.738;2024-02-23T06:57:44;1;1;
36897;PMS5003;22827;53.108;-6.738;2024-02-23T07:00:11;0;0;
36897;PMS5003;22827;53.108;-6.738;2024-02-23T07:02:39;0;0;
36897;PMS5003;22827;53.108;-6.738;2024-02-23T07:05:06;0;0;
36897;PMS5003;22827;53.108;-6.738;2024-02-23T07:07:34;0;0;
36897;PMS5003;22827;53.108;-6.738;2024-02-23T07:10:01;2;0;
36897;PMS5003;22827;53.108;-6.738;2024-02-23T07:12:28;0;0;
36897;PMS5003;22827;53.108;-6.738;2024-02-23T07:14:55;2;0;
36897;PMS5003;22827;53.108;-6.738;2024-02-23T07:17:23;1;0;
36897;PMS5003;22827;53.108;-6.738;2024-02-23T07:19:50;1;0;
36897;PMS5003;22827;53.108;-6.738;2024-02-23T07:22:17;0;0;
36897;PMS5003;22827;53.108;-6.738;2024-02-23T07:24:44;3;1;
36897;PMS5003;22827;53.108;-6.738;2024-02-23T07:27:11;1;0;
36897;PMS5003;22827;53.108;-6.738;2024-02-23T07:29:38;0;0;
36897;PMS5003;22827;53.108;-6.738;2024-02-23T07:32:06;3;1;
36897;PMS5003;22827;53.108;-6.738;2024-02-23T07:34:33;0;0;
36897;PMS5003;22827;53.108;-6.738;2024-02-23T07:37:00;2;1;
36897;PMS5003;22827;53.108;-6.738;2024-02-23T07:39:27;3;0;
36897;PMS5003;22827;53.108;-6.738;2024-02-23T07:41:54;2;0;
36897;PMS5003;22827;53.108;-6.738;2024-02-23T07:44:21;1;1;
36897;PMS5003;22827;53.108;-6.738;2024-02-23T07:46:48;2;1;
36897;PMS5003;22827;53.108;-6.738;2024-02-23T07:49:15;0;0;
36897;PMS5003;22827;53.108;-6.738;2024-02-23T07:51:42;0;0;
36897;PMS5003;22827;53.108;-6.738;2024-02-23T07:54:09;2;0;
36897;PMS5003;22827;53.108;-6.738;2024-02-23T07:56:36;0;0;
36897;PMS5003;22827;53.108;-6.738;2024-02-23T07:59:03;2;0;
36897;PMS5003;22827;53.108;-6.738;2024-02-23T08:01:30;1;1;
36897;PMS5003;22827;53.108;-6.738;2024-02-23T08:03:57;0;0;
36897;PMS5003;22827;53.108;-6.738;2024-02-23T08:06:24;1;1;
36897;PMS5003;22827;53.108;-6.738;2024-02-23T08:08:51;0;0;
36897;PMS5003;22827;53.108;-6.738;2024-02-23T08:11:18;1;0;
36897;PMS5003;22827;53.108;-6.738;2024-02-23T08:13:45;0;0;
36897;PMS5003;22827;53.108;-6.738;2024-02-23T08:16:12;1;1;
36897;PMS5003;22827;53.108;-6.738;2024-02-23T08:18:42;0;0;
36897;PMS5003;22827;53.108;-6.738;2024-02-23T08:21:09;35;32;
36897;PMS5003;22827;53.108;-6.738;2024-02-23T08:23:36;25;24;
36897;PMS5003;22827;53.108;-6.738;2024-02-23T08:26:03;21;20;
36897;PMS5003;22827;53.108;-6.738;2024-02-23T08:28:30;14;14;
36897;PMS5003;22827;53.108;-6.738;2024-02-23T08:30:57;12;12;
36897;PMS5003;22827;53.108;-6.738;2024-02-23T08:33:24;13;13;
36897;PMS5003;22827;53.108;-6.738;2024-02-23T08:35:52;20;19;
36897;PMS5003;22827;53.108;-6.738;2024-02-23T08:38:19;29;29;
36897;PMS5003;22827;53.108;-6.738;2024-02-23T08:40:46;29;29;
36897;PMS5003;22827;53.108;-6.738;2024-02-23T08:43:13;21;20;
36897;PMS5003;22827;53.108;-6.738;2024-02-23T08:45:40;14;13;
36897;PMS5003;22827;53.108;-6.738;2024-02-23T08:48:07;10;10;
36897;PMS5003;22827;53.108;-6.738;2024-02-23T08:50:34;7;3;
36897;PMS5003;22827;53.108;-6.738;2024-02-23T08:53:01;3;3;
36897;PMS5003;22827;53.108;-6.738;2024-02-23T08:55:28;2;2;
36897;PMS5003;22827;53.108;-6.738;2024-02-23T08:57:55;2;2;
36897;PMS5003;22827;53.108;-6.738;2024-02-23T09:00:22;2;1;
36897;PMS5003;22827;53.108;-6.738;2024-02-23T09:02:49;3;2;
36897;PMS5003;22827;53.108;-6.738;2024-02-23T09:05:16;2;1;
36897;PMS5003;22827;53.108;-6.738;2024-02-23T09:07:43;1;1;
36897;PMS5003;22827;53.108;-6.738;2024-02-23T09:10:10;1;1;
36897;PMS5003;22827;53.108;-6.738;2024-02-23T09:12:37;2;2;
36897;PMS5003;22827;53.108;-6.738;2024-02-23T09:15:05;0;0;
36897;PMS5003;22827;53.108;-6.738;2024-02-23T09:17:32;0;0;
36897;PMS5003;22827;53.108;-6.738;2024-02-23T09:20:00;0;0;
36897;PMS5003;22827;53.108;-6.738;2024-02-23T09:22:26;0;0;
36897;PMS5003;22827;53.108;-6.738;2024-02-23T09:24:53;1;1;
36897;PMS5003;22827;53.108;-6.738;2024-02-23T09:27:21;1;0;
36897;PMS5003;22827;53.108;-6.738;2024-02-23T09:29:48;0;0;
36897;PMS5003;22827;53.108;-6.738;2024-02-23T09:32:15;1;1;
36897;PMS5003;22827;53.108;-6.738;2024-02-23T09:34:42;1;0;
36897;PMS5003;22827;53.108;-6.738;2024-02-23T09:37:09;0;0;
36897;PMS5003;22827;53.108;-6.738;2024-02-23T09:39:36;2;1;
36897;PMS5003;22827;53.108;-6.738;2024-02-23T09:42:03;0;0;
36897;PMS5003;22827;53.108;-6.738;2024-02-23T09:44:35;0;0;
36897;PMS5003;22827;53.108;-6.738;2024-02-23T09:47:03;1;0;
36897;PMS5003;22827;53.108;-6.738;2024-02-23T09:49:31;0;0;
36897;PMS5003;22827;53.108;-6.738;2024-02-23T09:51:58;0;0;
36897;PMS5003;22827;53.108;-6.738;2024-02-23T09:54:26;0;0;
36897;PMS5003;22827;53.108;-6.738;2024-02-23T09:56:52;0;0;
36897;PMS5003;22827;53.108;-6.738;2024-02-23T09:59:19;0;0;
36897;PMS5003;22827;53.108;-6.738;2024-02-23T10:01:46;2;1;
36897;PMS5003;22827;53.108;-6.738;2024-02-23T10:04:14;1;1;
36897;PMS5003;22827;53.108;-6.738;2024-02-23T10:06:41;0;0;
36897;PMS5003;22827;53.108;-6.738;2024-02-23T10:09:08;0;0;
36897;PMS5003;22827;53.108;-6.738;2024-02-23T10:11:35;0;0;
36897;PMS5003;22827;53.108;-6.738;2024-02-23T10:14:02;0;0;
36897;PMS5003;22827;53.108;-6.738;2024-02-23T10:16:29;1;0;
36897;PMS5003;22827;53.108;-6.738;2024-02-23T10:18:57;0;0;
36897;PMS5003;22827;53.108;-6.738;2024-02-23T10:21:24;0;0;
36897;PMS5003;22827;53.108;-6.738;2024-02-23T10:23:51;0;0;
36897;PMS5003;22827;53.108;-6.738;2024-02-23T10:26:18;1;1;
36897;PMS5003;22827;53.108;-6.738;2024-02-23T10:28:45;0;0;
36897;PMS5003;22827;53.108;-6.738;2024-02-23T10:31:12;3;2;
36897;PMS5003;22827;53.108;-6.738;2024-02-23T10:33:39;1;1;
36897;PMS5003;22827;53.108;-6.738;2024-02-23T10:36:07;0;0;
36897;PMS5003;22827;53.108;-6.738;2024-02-23T10:38:35;1;0;
36897;PMS5003;22827;53.108;-6.738;2024-02-23T10:41:04;1;0;
36897;PMS5003;22827;53.108;-6.738;2024-02-23T10:43:33;1;1;
36897;PMS5003;22827;53.108;-6.738;2024-02-23T10:46:07;3;3;
36897;PMS5003;22827;53.108;-6.738;2024-02-23T10:48:36;3;3;
36897;PMS5003;22827;53.108;-6.738;2024-02-23T10:51:05;3;1;
36897;PMS5003;22827;53.108;-6.738;2024-02-23T10:53:33;1;1;
36897;PMS5003;22827;53.108;-6.738;2024-02-23T10:56:01;0;0;
36897;PMS5003;22827;53.108;-6.738;2024-02-23T10:58:30;0;0;
36897;PMS5003;22827;53.108;-6.738;2024-02-23T11:00:58;4;2;
36897;PMS5003;22827;53.108;-6.738;2024-02-23T11:03:26;3;3;
36897;PMS5003;22827;53.108;-6.738;2024-02-23T11:05:54;1;1;
36897;PMS5003;22827;53.108;-6.738;2024-02-23T11:08:21;2;0;
36897;PMS5003;22827;53.108;-6.738;2024-02-23T11:10:49;1;1;
36897;PMS5003;22827;53.108;-6.738;2024-02-23T11:13:18;1;1;
36897;PMS5003;22827;53.108;-6.738;2024-02-23T11:15:45;1;1;
36897;PMS5003;22827;53.108;-6.738;2024-02-23T11:18:27;0;0;
36897;PMS5003;22827;53.108;-6.738;2024-02-23T11:20:54;4;2;
36897;PMS5003;22827;53.108;-6.738;2024-02-23T11:23:22;1;0;
36897;PMS5003;22827;53.108;-6.738;2024-02-23T11:26:05;2;0;
36897;PMS5003;22827;53.108;-6.738;2024-02-23T11:28:32;1;1;
36897;PMS5003;22827;53.108;-6.738;2024-02-23T11:30:59;0;0;
36897;PMS5003;22827;53.108;-6.738;2024-02-23T11:33:26;0;0;
36897;PMS5003;22827;53.108;-6.738;2024-02-23T11:35:53;2;1;
36897;PMS5003;22827;53.108;-6.738;2024-02-23T11:38:31;0;0;
36897;PMS5003;22827;53.108;-6.738;2024-02-23T11:40:59;1;1;
36897;PMS5003;22827;53.108;-6.738;2024-02-23T11:43:26;1;0;
36897;PMS5003;22827;53.108;-6.738;2024-02-23T11:45:53;1;1;
36897;PMS5003;22827;53.108;-6.738;2024-02-23T11:48:21;1;1;
36897;PMS5003;22827;53.108;-6.738;2024-02-23T11:50:48;1;1;
36897;PMS5003;22827;53.108;-6.738;2024-02-23T11:53:17;0;0;
36897;PMS5003;22827;53.108;-6.738;2024-02-23T11:55:45;0;0;
36897;PMS5003;22827;53.108;-6.738;2024-02-23T11:58:12;0;0;
36897;PMS5003;22827;53.108;-6.738;2024-02-23T12:00:39;1;0;
36897;PMS5003;22827;53.108;-6.738;2024-02-23T12:03:06;1;1;
36897;PMS5003;22827;53.108;-6.738;2024-02-23T12:05:33;1;1;
36897;PMS5003;22827;53.108;-6.738;2024-02-23T12:08:00;0;0;
36897;PMS5003;22827;53.108;-6.738;2024-02-23T12:10:28;11;9;
36897;PMS5003;22827;53.108;-6.738;2024-02-23T12:12:56;1;1;
36897;PMS5003;22827;53.108;-6.738;2024-02-23T12:15:24;1;0;
36897;PMS5003;22827;53.108;-6.738;2024-02-23T12:17:51;2;2;
36897;PMS5003;22827;53.108;-6.738;2024-02-23T12:20:18;2;1;
36897;PMS5003;22827;53.108;-6.738;2024-02-23T12:22:47;1;0;
36897;PMS5003;22827;53.108;-6.738;2024-02-23T12:25:14;5;1;
36897;PMS5003;22827;53.108;-6.738;2024-02-23T12:27:41;1;0;
36897;PMS5003;22827;53.108;-6.738;2024-02-23T12:30:13;1;1;
36897;PMS5003;22827;53.108;-6.738;2024-02-23T12:32:40;0;0;
36897;PMS5003;22827;53.108;-6.738;2024-02-23T12:35:07;2;1;
36897;PMS5003;22827;53.108;-6.738;2024-02-23T12:37:37;4;4;
36897;PMS5003;22827;53.108;-6.738;2024-02-23T12:40:05;4;1;
36897;PMS5003;22827;53.108;-6.738;2024-02-23T12:42:33;1;1;
36897;PMS5003;22827;53.108;-6.738;2024-02-23T12:45:00;0;0;
36897;PMS5003;22827;53.108;-6.738;2024-02-23T12:47:27;2;0;
36897;PMS5003;22827;53.108;-6.738;2024-02-23T12:49:54;0;0;
36897;PMS5003;22827;53.108;-6.738;2024-02-23T12:52:21;0;0;
36897;PMS5003;22827;53.108;-6.738;2024-02-23T12:54:48;2;1;
36897;PMS5003;22827;53.108;-6.738;2024-02-23T12:57:15;0;0;
36897;PMS5003;22827;53.108;-6.738;2024-02-23T12:59:42;0;0;
36897;PMS5003;22827;53.108;-6.738;2024-02-23T13:02:09;2;0;
36897;PMS5003;22827;53.108;-6.738;2024-02-23T13:04:38;1;0;
36897;PMS5003;22827;53.108;-6.738;2024-02-23T13:07:06;2;1;
36897;PMS5003;22827;53.108;-6.738;2024-02-23T13:09:32;0;0;
36897;PMS5003;22827;53.108;-6.738;2024-02-23T13:11:59;3;0;
36897;PMS5003;22827;53.108;-6.738;2024-02-23T13:14:26;2;0;
36897;PMS5003;22827;53.108;-6.738;2024-02-23T13:16:53;5;1;
36897;PMS5003;22827;53.108;-6.738;2024-02-23T13:19:20;4;4;
36897;PMS5003;22827;53.108;-6.738;2024-02-23T13:21:47;2;1;
36897;PMS5003;22827;53.108;-6.738;2024-02-23T13:24:14;2;0;
36897;PMS5003;22827;53.108;-6.738;2024-02-23T13:26:42;2;0;
36897;PMS5003;22827;53.108;-6.738;2024-02-23T13:29:09;2;2;
36897;PMS5003;22827;53.108;-6.738;2024-02-23T13:31:36;2;2;
36897;PMS5003;22827;53.108;-6.738;2024-02-23T13:34:04;1;0;
36897;PMS5003;22827;53.108;-6.738;2024-02-23T13:36:31;2;0;
36897;PMS5003;22827;53.108;-6.738;2024-02-23T13:38:57;1;1;
36897;PMS5003;22827;53.108;-6.738;2024-02-23T13:41:25;2;1;
36897;PMS5003;22827;53.108;-6.738;2024-02-23T13:43:51;1;0;
36897;PMS5003;22827;53.108;-6.738;2024-02-23T13:46:18;1;0;
36897;PMS5003;22827;53.108;-6.738;2024-02-23T13:48:45;1;1;
36897;PMS5003;22827;53.108;-6.738;2024-02-23T13:51:16;3;1;
36897;PMS5003;22827;53.108;-6.738;2024-02-23T13:53:43;0;0;
36897;PMS5003;22827;53.108;-6.738;2024-02-23T13:56:10;0;0;
36897;PMS5003;22827;53.108;-6.738;2024-02-23T13:58:37;0;0;
36897;PMS5003;22827;53.108;-6.738;2024-02-23T14:01:03;5;1;
36897;PMS5003;22827;53.108;-6.738;2024-02-23T14:03:30;2;0;
36897;PMS5003;22827;53.108;-6.738;2024-02-23T14:05:57;1;1;
36897;PMS5003;22827;53.108;-6.738;2024-02-23T14:08:24;0;0;
36897;PMS5003;22827;53.108;-6.738;2024-02-23T14:10:51;0;0;
36897;PMS5003;22827;53.108;-6.738;2024-02-23T14:13:18;1;0;
36897;PMS5003;22827;53.108;-6.738;2024-02-23T14:15:45;1;0;
36897;PMS5003;22827;53.108;-6.738;2024-02-23T14:18:12;4;0;
36897;PMS5003;22827;53.108;-6.738;2024-02-23T14:20:39;3;1;
36897;PMS5003;22827;53.108;-6.738;2024-02-23T14:23:06;0;0;
36897;PMS5003;22827;53.108;-6.738;2024-02-23T14:25:33;1;1;
36897;PMS5003;22827;53.108;-6.738;2024-02-23T14:28:00;2;0;
36897;PMS5003;22827;53.108;-6.738;2024-02-23T14:30:27;1;1;
36897;PMS5003;22827;53.108;-6.738;2024-02-23T14:32:54;1;1;
36897;PMS5003;22827;53.108;-6.738;2024-02-23T14:35:21;1;1;
36897;PMS5003;22827;53.108;-6.738;2024-02-23T14:37:47;1;1;
36897;PMS5003;22827;53.108;-6.738;2024-02-23T14:40:15;2;1;
36897;PMS5003;22827;53.108;-6.738;2024-02-23T14:42:42;1;1;
36897;PMS5003;22827;53.108;-6.738;2024-02-23T14:45:09;1;1;
36897;PMS5003;22827;53.108;-6.738;2024-02-23T14:47:36;1;1;
36897;PMS5003;22827;53.108;-6.738;2024-02-23T14:50:03;1;1;
36897;PMS5003;22827;53.108;-6.738;2024-02-23T14:52:31;0;0;
36897;PMS5003;22827;53.108;-6.738;2024-02-23T14:54:57;1;1;
36897;PMS5003;22827;53.108;-6.738;2024-02-23T14:57:24;0;0;
36897;PMS5003;22827;53.108;-6.738;2024-02-23T14:59:51;1;1;
36897;PMS5003;22827;53.108;-6.738;2024-02-23T15:02:19;0;0;
36897;PMS5003;22827;53.108;-6.738;2024-02-23T15:04:47;0;0;
36897;PMS5003;22827;53.108;-6.738;2024-02-23T15:07:15;2;0;
36897;PMS5003;22827;53.108;-6.738;2024-02-23T15:09:42;0;0;
36897;PMS5003;22827;53.108;-6.738;2024-02-23T15:12:09;1;1;
36897;PMS5003;22827;53.108;-6.738;2024-02-23T15:14:37;2;1;
36897;PMS5003;22827;53.108;-6.738;2024-02-23T15:17:04;0;0;
36897;PMS5003;22827;53.108;-6.738;2024-02-23T15:19:31;1;0;
36897;PMS5003;22827;53.108;-6.738;2024-02-23T15:21:57;2;2;
36897;PMS5003;22827;53.108;-6.738;2024-02-23T15:24:25;2;2;
36897;PMS5003;22827;53.108;-6.738;2024-02-23T15:26:52;1;0;
36897;PMS5003;22827;53.108;-6.738;2024-02-23T15:29:19;2;2;
36897;PMS5003;22827;53.108;-6.738;2024-02-23T15:31:46;2;1;
36897;PMS5003;22827;53.108;-6.738;2024-02-23T15:34:13;2;2;
36897;PMS5003;22827;53.108;-6.738;2024-02-23T15:36:40;3;1;
36897;PMS5003;22827;53.108;-6.738;2024-02-23T15:39:07;4;3;
36897;PMS5003;22827;53.108;-6.738;2024-02-23T15:41:34;4;2;
36897;PMS5003;22827;53.108;-6.738;2024-02-23T15:44:01;3;1;
36897;PMS5003;22827;53.108;-6.738;2024-02-23T15:46:28;1;1;
36897;PMS5003;22827;53.108;-6.738;2024-02-23T15:48:55;1;1;
36897;PMS5003;22827;53.108;-6.738;2024-02-23T15:51:23;1;1;
36897;PMS5003;22827;53.108;-6.738;2024-02-23T15:53:50;3;1;
36897;PMS5003;22827;53.108;-6.738;2024-02-23T15:56:17;4;1;
36897;PMS5003;22827;53.108;-6.738;2024-02-23T15:58:44;7;4;
36897;PMS5003;22827;53.108;-6.738;2024-02-23T16:01:11;3;2;
36897;PMS5003;22827;53.108;-6.738;2024-02-23T16:03:39;1;1;
36897;PMS5003;22827;53.108;-6.738;2024-02-23T16:06:06;3;2;
36897;PMS5003;22827;53.108;-6.738;2024-02-23T16:08:41;5;3;
36897;PMS5003;22827;53.108;-6.738;2024-02-23T16:11:09;1;1;
36897;PMS5003;22827;53.108;-6.738;2024-02-23T16:13:36;3;2;
36897;PMS5003;22827;53.108;-6.738;2024-02-23T16:16:04;1;0;
36897;PMS5003;22827;53.108;-6.738;2024-02-23T16:18:33;4;3;
36897;PMS5003;22827;53.108;-6.738;2024-02-23T16:21:00;3;1;
36897;PMS5003;22827;53.108;-6.738;2024-02-23T16:23:27;3;1;
36897;PMS5003;22827;53.108;-6.738;2024-02-23T16:25:55;5;2;
36897;PMS5003;22827;53.108;-6.738;2024-02-23T16:28:23;2;2;
36897;PMS5003;22827;53.108;-6.738;2024-02-23T16:30:50;2;2;
36897;PMS5003;22827;53.108;-6.738;2024-02-23T16:33:17;2;2;